sensor_id;sensor_type;location;lat;lon;timestamp;P1;durP1;ratioP1;P2;durP2;ratioP2
85223;SDS011;75619;51.316;4.824;2024-01-30T00:02:23;18.00;;;7.97;;
85223;SDS011;75619;51.316;4.824;2024-01-30T00:04:49;13.95;;;7.80;;
85223;SDS011;75619;51.316;4.824;2024-01-30T00:07:14;15.05;;;7.70;;
85223;SDS011;75619;51.316;4.824;2024-01-30T00:09:40;16.10;;;7.18;;
85223;SDS011;75619;51.316;4.824;2024-01-30T00:12:05;14.50;;;7.60;;
85223;SDS011;75619;51.316;4.824;2024-01-30T00:14:31;20.10;;;8.00;;
85223;SDS011;75619;51.316;4.824;2024-01-30T00:16:57;14.60;;;7.28;;
85223;SDS011;75619;51.316;4.824;2024-01-30T00:19:22;14.68;;;7.15;;
85223;SDS011;75619;51.316;4.824;2024-01-30T00:21:48;19.77;;;7.68;;
85223;SDS011;75619;51.316;4.824;2024-01-30T00:24:13;15.35;;;7.18;;
85223;SDS011;75619;51.316;4.824;2024-01-30T00:26:39;18.08;;;7.63;;
85223;SDS011;75619;51.316;4.824;2024-01-30T00:29:04;13.90;;;7.35;;
85223;SDS011;75619;51.316;4.824;2024-01-30T00:31:30;15.07;;;7.15;;
85223;SDS011;75619;51.316;4.824;2024-01-30T00:33:55;13.60;;;6.38;;
85223;SDS011;75619;51.316;4.824;2024-01-30T00:36:21;24.60;;;7.47;;
85223;SDS011;75619;51.316;4.824;2024-01-30T00:38:46;17.85;;;7.55;;
85223;SDS011;75619;51.316;4.824;2024-01-30T00:41:12;14.35;;;7.22;;
85223;SDS011;75619;51.316;4.824;2024-01-30T00:43:38;13.15;;;7.28;;
85223;SDS011;75619;51.316;4.824;2024-01-30T00:46:03;19.20;;;6.93;;
85223;SDS011;75619;51.316;4.824;2024-01-30T00:48:29;15.40;;;6.60;;
85223;SDS011;75619;51.316;4.824;2024-01-30T00:50:55;14.20;;;6.85;;
85223;SDS011;75619;51.316;4.824;2024-01-30T00:53:20;21.85;;;7.32;;
85223;SDS011;75619;51.316;4.824;2024-01-30T00:55:46;14.00;;;7.10;;
85223;SDS011;75619;51.316;4.824;2024-01-30T00:58:11;16.23;;;6.72;;
85223;SDS011;75619;51.316;4.824;2024-01-30T01:00:36;11.20;;;6.63;;
85223;SDS011;75619;51.316;4.824;2024-01-30T01:03:02;11.90;;;6.45;;
85223;SDS011;75619;51.316;4.824;2024-01-30T01:05:28;16.05;;;6.57;;
85223;SDS011;75619;51.316;4.824;2024-01-30T01:07:53;12.20;;;6.63;;
85223;SDS011;75619;51.316;4.824;2024-01-30T01:10:19;15.90;;;6.22;;
85223;SDS011;75619;51.316;4.824;2024-01-30T01:12:45;15.35;;;5.75;;
85223;SDS011;75619;51.316;4.824;2024-01-30T01:15:11;14.38;;;6.80;;
85223;SDS011;75619;51.316;4.824;2024-01-30T01:17:37;16.58;;;6.93;;
85223;SDS011;75619;51.316;4.824;2024-01-30T01:20:04;16.75;;;6.25;;
85223;SDS011;75619;51.316;4.824;2024-01-30T01:22:30;13.00;;;6.28;;
85223;SDS011;75619;51.316;4.824;2024-01-30T01:24:56;12.85;;;5.97;;
85223;SDS011;75619;51.316;4.824;2024-01-30T01:27:22;10.68;;;6.07;;
85223;SDS011;75619;51.316;4.824;2024-01-30T01:29:47;12.45;;;6.57;;
85223;SDS011;75619;51.316;4.824;2024-01-30T01:32:12;11.80;;;5.90;;
85223;SDS011;75619;51.316;4.824;2024-01-30T01:34:38;12.13;;;5.70;;
85223;SDS011;75619;51.316;4.824;2024-01-30T01:37:03;10.55;;;5.80;;
85223;SDS011;75619;51.316;4.824;2024-01-30T01:39:29;14.68;;;5.68;;
85223;SDS011;75619;51.316;4.824;2024-01-30T01:41:54;13.52;;;6.10;;
85223;SDS011;75619;51.316;4.824;2024-01-30T01:44:20;12.63;;;5.88;;
85223;SDS011;75619;51.316;4.824;2024-01-30T01:46:45;13.68;;;6.20;;
85223;SDS011;75619;51.316;4.824;2024-01-30T01:49:11;14.23;;;7.00;;
85223;SDS011;75619;51.316;4.824;2024-01-30T01:51:37;12.30;;;5.43;;
85223;SDS011;75619;51.316;4.824;2024-01-30T01:54:04;17.48;;;6.40;;
85223;SDS011;75619;51.316;4.824;2024-01-30T01:56:33;10.68;;;5.47;;
85223;SDS011;75619;51.316;4.824;2024-01-30T01:59:05;13.25;;;5.97;;
85223;SDS011;75619;51.316;4.824;2024-01-30T02:01:37;12.15;;;5.88;;
85223;SDS011;75619;51.316;4.824;2024-01-30T02:04:04;13.93;;;6.63;;
85223;SDS011;75619;51.316;4.824;2024-01-30T02:06:30;14.68;;;6.22;;
85223;SDS011;75619;51.316;4.824;2024-01-30T02:08:57;12.40;;;5.50;;
85223;SDS011;75619;51.316;4.824;2024-01-30T02:11:22;15.45;;;5.63;;
85223;SDS011;75619;51.316;4.824;2024-01-30T02:13:49;12.80;;;5.72;;
85223;SDS011;75619;51.316;4.824;2024-01-30T02:16:15;12.88;;;6.07;;
85223;SDS011;75619;51.316;4.824;2024-01-30T02:18:42;12.63;;;6.07;;
85223;SDS011;75619;51.316;4.824;2024-01-30T02:21:10;11.60;;;5.63;;
85223;SDS011;75619;51.316;4.824;2024-01-30T02:23:36;10.63;;;5.22;;
85223;SDS011;75619;51.316;4.824;2024-01-30T02:26:02;12.32;;;5.53;;
85223;SDS011;75619;51.316;4.824;2024-01-30T02:28:28;11.95;;;5.97;;
85223;SDS011;75619;51.316;4.824;2024-01-30T02:30:53;13.25;;;5.50;;
85223;SDS011;75619;51.316;4.824;2024-01-30T02:33:19;12.88;;;6.35;;
85223;SDS011;75619;51.316;4.824;2024-01-30T02:35:46;12.57;;;5.85;;
85223;SDS011;75619;51.316;4.824;2024-01-30T02:38:12;13.52;;;5.45;;
85223;SDS011;75619;51.316;4.824;2024-01-30T02:40:38;14.10;;;6.30;;
85223;SDS011;75619;51.316;4.824;2024-01-30T02:43:03;12.45;;;6.28;;
85223;SDS011;75619;51.316;4.824;2024-01-30T02:45:29;15.40;;;6.03;;
85223;SDS011;75619;51.316;4.824;2024-01-30T02:47:54;15.13;;;5.97;;
85223;SDS011;75619;51.316;4.824;2024-01-30T02:50:20;12.70;;;5.47;;
85223;SDS011;75619;51.316;4.824;2024-01-30T02:52:45;13.80;;;6.22;;
85223;SDS011;75619;51.316;4.824;2024-01-30T02:55:11;13.52;;;6.07;;
85223;SDS011;75619;51.316;4.824;2024-01-30T02:57:37;16.10;;;6.25;;
85223;SDS011;75619;51.316;4.824;2024-01-30T03:00:03;14.98;;;6.20;;
85223;SDS011;75619;51.316;4.824;2024-01-30T03:02:31;11.32;;;5.25;;
85223;SDS011;75619;51.316;4.824;2024-01-30T03:04:57;13.82;;;5.82;;
85223;SDS011;75619;51.316;4.824;2024-01-30T03:07:22;12.13;;;6.05;;
85223;SDS011;75619;51.316;4.824;2024-01-30T03:09:48;12.50;;;5.78;;
85223;SDS011;75619;51.316;4.824;2024-01-30T03:12:13;9.80;;;5.18;;
85223;SDS011;75619;51.316;4.824;2024-01-30T03:14:39;11.88;;;6.13;;
85223;SDS011;75619;51.316;4.824;2024-01-30T03:17:04;10.73;;;5.55;;
85223;SDS011;75619;51.316;4.824;2024-01-30T03:19:30;13.75;;;5.45;;
85223;SDS011;75619;51.316;4.824;2024-01-30T03:21:55;13.60;;;5.85;;
85223;SDS011;75619;51.316;4.824;2024-01-30T03:24:21;12.30;;;6.00;;
85223;SDS011;75619;51.316;4.824;2024-01-30T03:26:46;8.52;;;4.82;;
85223;SDS011;75619;51.316;4.824;2024-01-30T03:29:12;11.63;;;5.13;;
85223;SDS011;75619;51.316;4.824;2024-01-30T03:31:38;11.45;;;4.97;;
85223;SDS011;75619;51.316;4.824;2024-01-30T03:34:04;11.68;;;5.20;;
85223;SDS011;75619;51.316;4.824;2024-01-30T03:36:29;14.35;;;5.22;;
85223;SDS011;75619;51.316;4.824;2024-01-30T03:38:57;11.95;;;5.43;;
85223;SDS011;75619;51.316;4.824;2024-01-30T03:41:23;9.85;;;4.88;;
85223;SDS011;75619;51.316;4.824;2024-01-30T03:43:49;13.07;;;5.80;;
85223;SDS011;75619;51.316;4.824;2024-01-30T03:46:14;11.00;;;5.65;;
85223;SDS011;75619;51.316;4.824;2024-01-30T03:48:39;10.65;;;5.50;;
85223;SDS011;75619;51.316;4.824;2024-01-30T03:51:05;11.63;;;5.75;;
85223;SDS011;75619;51.316;4.824;2024-01-30T03:53:30;19.88;;;6.47;;
85223;SDS011;75619;51.316;4.824;2024-01-30T03:55:56;15.70;;;6.13;;
85223;SDS011;75619;51.316;4.824;2024-01-30T03:58:22;15.70;;;5.72;;
85223;SDS011;75619;51.316;4.824;2024-01-30T04:00:47;14.52;;;6.63;;
85223;SDS011;75619;51.316;4.824;2024-01-30T04:03:14;12.93;;;6.20;;
85223;SDS011;75619;51.316;4.824;2024-01-30T04:05:40;15.75;;;7.18;;
85223;SDS011;75619;51.316;4.824;2024-01-30T04:08:06;19.63;;;7.03;;
85223;SDS011;75619;51.316;4.824;2024-01-30T04:10:32;15.90;;;5.93;;
85223;SDS011;75619;51.316;4.824;2024-01-30T04:12:57;13.38;;;6.53;;
85223;SDS011;75619;51.316;4.824;2024-01-30T04:15:23;14.98;;;5.95;;
85223;SDS011;75619;51.316;4.824;2024-01-30T04:17:48;13.35;;;6.15;;
85223;SDS011;75619;51.316;4.824;2024-01-30T04:20:14;17.25;;;6.13;;
85223;SDS011;75619;51.316;4.824;2024-01-30T04:22:44;16.45;;;5.78;;
85223;SDS011;75619;51.316;4.824;2024-01-30T04:25:11;12.10;;;4.90;;
85223;SDS011;75619;51.316;4.824;2024-01-30T04:27:37;13.02;;;5.90;;
85223;SDS011;75619;51.316;4.824;2024-01-30T04:30:02;12.70;;;5.55;;
85223;SDS011;75619;51.316;4.824;2024-01-30T04:32:29;13.77;;;5.65;;
85223;SDS011;75619;51.316;4.824;2024-01-30T04:34:54;18.48;;;7.20;;
85223;SDS011;75619;51.316;4.824;2024-01-30T04:37:20;12.63;;;5.85;;
85223;SDS011;75619;51.316;4.824;2024-01-30T04:39:45;12.48;;;6.00;;
85223;SDS011;75619;51.316;4.824;2024-01-30T04:42:10;11.10;;;5.72;;
85223;SDS011;75619;51.316;4.824;2024-01-30T04:44:36;11.43;;;5.72;;
85223;SDS011;75619;51.316;4.824;2024-01-30T04:47:01;12.40;;;6.22;;
85223;SDS011;75619;51.316;4.824;2024-01-30T04:49:27;12.38;;;5.93;;
85223;SDS011;75619;51.316;4.824;2024-01-30T04:51:54;13.95;;;6.07;;
85223;SDS011;75619;51.316;4.824;2024-01-30T04:54:19;12.05;;;6.13;;
85223;SDS011;75619;51.316;4.824;2024-01-30T04:56:45;13.77;;;5.47;;
85223;SDS011;75619;51.316;4.824;2024-01-30T04:59:11;12.80;;;5.75;;
85223;SDS011;75619;51.316;4.824;2024-01-30T05:01:37;10.95;;;5.75;;
85223;SDS011;75619;51.316;4.824;2024-01-30T05:04:03;11.90;;;5.63;;
85223;SDS011;75619;51.316;4.824;2024-01-30T05:06:29;15.43;;;5.60;;
85223;SDS011;75619;51.316;4.824;2024-01-30T05:08:55;12.50;;;5.72;;
85223;SDS011;75619;51.316;4.824;2024-01-30T05:11:20;14.25;;;5.70;;
85223;SDS011;75619;51.316;4.824;2024-01-30T05:13:46;14.93;;;6.07;;
85223;SDS011;75619;51.316;4.824;2024-01-30T05:16:11;12.43;;;5.85;;
85223;SDS011;75619;51.316;4.824;2024-01-30T05:18:37;10.85;;;5.40;;
85223;SDS011;75619;51.316;4.824;2024-01-30T05:21:02;15.13;;;5.80;;
85223;SDS011;75619;51.316;4.824;2024-01-30T05:23:28;16.33;;;6.07;;
85223;SDS011;75619;51.316;4.824;2024-01-30T05:25:54;13.55;;;5.50;;
85223;SDS011;75619;51.316;4.824;2024-01-30T05:28:19;11.18;;;5.40;;
85223;SDS011;75619;51.316;4.824;2024-01-30T05:30:45;11.90;;;4.90;;
85223;SDS011;75619;51.316;4.824;2024-01-30T05:33:10;11.50;;;5.35;;
85223;SDS011;75619;51.316;4.824;2024-01-30T05:35:37;12.48;;;5.75;;
85223;SDS011;75619;51.316;4.824;2024-01-30T05:38:03;10.43;;;4.47;;
85223;SDS011;75619;51.316;4.824;2024-01-30T05:40:29;10.88;;;5.10;;
85223;SDS011;75619;51.316;4.824;2024-01-30T05:42:55;10.00;;;4.68;;
85223;SDS011;75619;51.316;4.824;2024-01-30T05:45:21;9.20;;;4.72;;
85223;SDS011;75619;51.316;4.824;2024-01-30T05:47:48;11.65;;;5.07;;
85223;SDS011;75619;51.316;4.824;2024-01-30T05:50:14;10.95;;;4.72;;
85223;SDS011;75619;51.316;4.824;2024-01-30T05:52:40;11.90;;;4.80;;
85223;SDS011;75619;51.316;4.824;2024-01-30T05:55:05;9.38;;;5.38;;
85223;SDS011;75619;51.316;4.824;2024-01-30T05:57:31;11.05;;;5.40;;
85223;SDS011;75619;51.316;4.824;2024-01-30T05:59:56;9.50;;;4.88;;
85223;SDS011;75619;51.316;4.824;2024-01-30T06:02:22;13.85;;;5.32;;
85223;SDS011;75619;51.316;4.824;2024-01-30T06:04:48;10.23;;;5.10;;
85223;SDS011;75619;51.316;4.824;2024-01-30T06:07:13;13.68;;;5.38;;
85223;SDS011;75619;51.316;4.824;2024-01-30T06:09:39;11.90;;;5.43;;
85223;SDS011;75619;51.316;4.824;2024-01-30T06:12:05;14.93;;;6.30;;
85223;SDS011;75619;51.316;4.824;2024-01-30T06:14:31;11.10;;;5.75;;
85223;SDS011;75619;51.316;4.824;2024-01-30T06:16:58;14.10;;;6.00;;
85223;SDS011;75619;51.316;4.824;2024-01-30T06:19:24;10.00;;;5.78;;
85223;SDS011;75619;51.316;4.824;2024-01-30T06:21:49;11.57;;;5.28;;
85223;SDS011;75619;51.316;4.824;2024-01-30T06:24:15;11.73;;;5.80;;
85223;SDS011;75619;51.316;4.824;2024-01-30T06:26:40;10.35;;;4.95;;
85223;SDS011;75619;51.316;4.824;2024-01-30T06:29:06;8.93;;;4.47;;
85223;SDS011;75619;51.316;4.824;2024-01-30T06:31:32;10.85;;;4.72;;
85223;SDS011;75619;51.316;4.824;2024-01-30T06:33:58;9.70;;;3.97;;
85223;SDS011;75619;51.316;4.824;2024-01-30T06:36:23;8.63;;;4.57;;
85223;SDS011;75619;51.316;4.824;2024-01-30T06:38:49;10.13;;;4.63;;
85223;SDS011;75619;51.316;4.824;2024-01-30T06:41:14;9.95;;;4.93;;
85223;SDS011;75619;51.316;4.824;2024-01-30T06:43:40;10.32;;;4.68;;
85223;SDS011;75619;51.316;4.824;2024-01-30T06:46:05;8.48;;;4.43;;
85223;SDS011;75619;51.316;4.824;2024-01-30T06:48:31;8.57;;;4.32;;
85223;SDS011;75619;51.316;4.824;2024-01-30T06:50:57;9.38;;;5.10;;
85223;SDS011;75619;51.316;4.824;2024-01-30T06:53:22;10.10;;;4.32;;
85223;SDS011;75619;51.316;4.824;2024-01-30T06:55:48;12.40;;;4.55;;
85223;SDS011;75619;51.316;4.824;2024-01-30T06:58:13;9.02;;;4.60;;
85223;SDS011;75619;51.316;4.824;2024-01-30T07:00:39;11.18;;;4.95;;
85223;SDS011;75619;51.316;4.824;2024-01-30T07:03:04;15.90;;;5.10;;
85223;SDS011;75619;51.316;4.824;2024-01-30T07:05:31;9.80;;;4.75;;
85223;SDS011;75619;51.316;4.824;2024-01-30T07:07:57;10.52;;;4.68;;
85223;SDS011;75619;51.316;4.824;2024-01-30T07:10:22;8.27;;;4.55;;
85223;SDS011;75619;51.316;4.824;2024-01-30T07:12:48;12.57;;;5.18;;
85223;SDS011;75619;51.316;4.824;2024-01-30T07:15:13;9.45;;;4.38;;
85223;SDS011;75619;51.316;4.824;2024-01-30T07:17:42;12.18;;;4.82;;
85223;SDS011;75619;51.316;4.824;2024-01-30T07:20:07;10.68;;;5.00;;
85223;SDS011;75619;51.316;4.824;2024-01-30T07:22:34;10.10;;;4.65;;
85223;SDS011;75619;51.316;4.824;2024-01-30T07:24:59;9.10;;;5.15;;
85223;SDS011;75619;51.316;4.824;2024-01-30T07:27:25;9.20;;;4.95;;
85223;SDS011;75619;51.316;4.824;2024-01-30T07:29:50;8.77;;;5.05;;
85223;SDS011;75619;51.316;4.824;2024-01-30T07:32:16;10.35;;;5.18;;
85223;SDS011;75619;51.316;4.824;2024-01-30T07:34:41;12.20;;;4.72;;
85223;SDS011;75619;51.316;4.824;2024-01-30T07:37:07;10.02;;;4.75;;
85223;SDS011;75619;51.316;4.824;2024-01-30T07:39:33;9.23;;;4.05;;
85223;SDS011;75619;51.316;4.824;2024-01-30T07:41:59;10.15;;;5.13;;
85223;SDS011;75619;51.316;4.824;2024-01-30T07:44:25;8.90;;;3.97;;
85223;SDS011;75619;51.316;4.824;2024-01-30T07:46:50;8.80;;;4.57;;
85223;SDS011;75619;51.316;4.824;2024-01-30T07:49:16;9.52;;;5.38;;
85223;SDS011;75619;51.316;4.824;2024-01-30T07:51:42;8.82;;;5.07;;
85223;SDS011;75619;51.316;4.824;2024-01-30T07:54:08;9.52;;;5.35;;
85223;SDS011;75619;51.316;4.824;2024-01-30T07:56:39;13.48;;;5.57;;
85223;SDS011;75619;51.316;4.824;2024-01-30T07:59:04;15.40;;;7.53;;
85223;SDS011;75619;51.316;4.824;2024-01-30T08:01:30;31.77;;;19.75;;
85223;SDS011;75619;51.316;4.824;2024-01-30T08:03:55;11.95;;;6.30;;
85223;SDS011;75619;51.316;4.824;2024-01-30T08:06:21;13.27;;;6.00;;
85223;SDS011;75619;51.316;4.824;2024-01-30T08:08:46;14.73;;;9.05;;
85223;SDS011;75619;51.316;4.824;2024-01-30T08:11:12;11.52;;;5.30;;
85223;SDS011;75619;51.316;4.824;2024-01-30T08:13:37;7.93;;;4.63;;
85223;SDS011;75619;51.316;4.824;2024-01-30T08:16:03;14.20;;;6.20;;
85223;SDS011;75619;51.316;4.824;2024-01-30T08:18:29;11.45;;;6.00;;
85223;SDS011;75619;51.316;4.824;2024-01-30T08:20:54;15.68;;;5.85;;
85223;SDS011;75619;51.316;4.824;2024-01-30T08:23:20;16.38;;;7.18;;
85223;SDS011;75619;51.316;4.824;2024-01-30T08:25:45;11.13;;;7.45;;
85223;SDS011;75619;51.316;4.824;2024-01-30T08:28:11;14.60;;;5.85;;
85223;SDS011;75619;51.316;4.824;2024-01-30T08:30:37;13.27;;;6.00;;
85223;SDS011;75619;51.316;4.824;2024-01-30T08:33:04;12.73;;;5.70;;
85223;SDS011;75619;51.316;4.824;2024-01-30T08:35:29;14.68;;;6.13;;
85223;SDS011;75619;51.316;4.824;2024-01-30T08:37:58;12.52;;;5.40;;
85223;SDS011;75619;51.316;4.824;2024-01-30T08:40:24;16.20;;;5.13;;
85223;SDS011;75619;51.316;4.824;2024-01-30T08:42:50;9.65;;;4.80;;
85223;SDS011;75619;51.316;4.824;2024-01-30T08:45:15;12.10;;;5.55;;
85223;SDS011;75619;51.316;4.824;2024-01-30T08:47:41;11.85;;;5.45;;
85223;SDS011;75619;51.316;4.824;2024-01-30T08:50:06;15.98;;;5.30;;
85223;SDS011;75619;51.316;4.824;2024-01-30T08:52:32;11.02;;;5.53;;
85223;SDS011;75619;51.316;4.824;2024-01-30T08:54:59;16.17;;;5.35;;
85223;SDS011;75619;51.316;4.824;2024-01-30T08:57:24;11.27;;;5.10;;
85223;SDS011;75619;51.316;4.824;2024-01-30T08:59:53;9.95;;;5.00;;
85223;SDS011;75619;51.316;4.824;2024-01-30T09:02:19;15.10;;;5.55;;
85223;SDS011;75619;51.316;4.824;2024-01-30T09:04:44;17.65;;;7.43;;
85223;SDS011;75619;51.316;4.824;2024-01-30T09:07:10;13.15;;;6.05;;
85223;SDS011;75619;51.316;4.824;2024-01-30T09:09:37;15.88;;;5.72;;
85223;SDS011;75619;51.316;4.824;2024-01-30T09:12:04;14.50;;;5.40;;
85223;SDS011;75619;51.316;4.824;2024-01-30T09:14:32;12.77;;;4.75;;
85223;SDS011;75619;51.316;4.824;2024-01-30T09:16:58;9.77;;;6.20;;
85223;SDS011;75619;51.316;4.824;2024-01-30T09:19:24;14.90;;;6.45;;
85223;SDS011;75619;51.316;4.824;2024-01-30T09:21:49;16.23;;;7.38;;
85223;SDS011;75619;51.316;4.824;2024-01-30T09:24:14;16.80;;;7.18;;
85223;SDS011;75619;51.316;4.824;2024-01-30T09:26:40;17.48;;;7.72;;
85223;SDS011;75619;51.316;4.824;2024-01-30T09:29:05;21.70;;;6.57;;
85223;SDS011;75619;51.316;4.824;2024-01-30T09:31:31;16.17;;;7.35;;
85223;SDS011;75619;51.316;4.824;2024-01-30T09:33:56;18.20;;;7.13;;
85223;SDS011;75619;51.316;4.824;2024-01-30T09:36:21;12.88;;;6.18;;
85223;SDS011;75619;51.316;4.824;2024-01-30T09:38:47;14.50;;;7.13;;
85223;SDS011;75619;51.316;4.824;2024-01-30T09:41:12;16.85;;;7.30;;
85223;SDS011;75619;51.316;4.824;2024-01-30T09:43:38;15.25;;;7.28;;
85223;SDS011;75619;51.316;4.824;2024-01-30T09:46:08;16.70;;;7.50;;
85223;SDS011;75619;51.316;4.824;2024-01-30T09:51:04;19.02;;;5.82;;
85223;SDS011;75619;51.316;4.824;2024-01-30T09:53:30;13.73;;;6.72;;
85223;SDS011;75619;51.316;4.824;2024-01-30T09:55:56;14.02;;;6.00;;
85223;SDS011;75619;51.316;4.824;2024-01-30T09:58:23;15.82;;;6.72;;
85223;SDS011;75619;51.316;4.824;2024-01-30T10:00:48;17.88;;;5.97;;
85223;SDS011;75619;51.316;4.824;2024-01-30T10:03:14;13.05;;;6.63;;
85223;SDS011;75619;51.316;4.824;2024-01-30T10:05:40;14.23;;;7.00;;
85223;SDS011;75619;51.316;4.824;2024-01-30T10:08:06;20.02;;;8.10;;
85223;SDS011;75619;51.316;4.824;2024-01-30T10:10:35;11.32;;;6.70;;
85223;SDS011;75619;51.316;4.824;2024-01-30T10:13:01;12.68;;;5.70;;
85223;SDS011;75619;51.316;4.824;2024-01-30T10:15:27;15.90;;;6.47;;
85223;SDS011;75619;51.316;4.824;2024-01-30T10:17:53;24.33;;;10.13;;
85223;SDS011;75619;51.316;4.824;2024-01-30T10:20:19;14.25;;;6.15;;
85223;SDS011;75619;51.316;4.824;2024-01-30T10:22:45;11.25;;;5.20;;
85223;SDS011;75619;51.316;4.824;2024-01-30T10:25:11;14.38;;;6.63;;
85223;SDS011;75619;51.316;4.824;2024-01-30T10:27:36;13.02;;;6.95;;
85223;SDS011;75619;51.316;4.824;2024-01-30T10:30:01;12.60;;;6.75;;
85223;SDS011;75619;51.316;4.824;2024-01-30T10:32:29;16.27;;;6.35;;
85223;SDS011;75619;51.316;4.824;2024-01-30T10:34:54;15.68;;;7.00;;
85223;SDS011;75619;51.316;4.824;2024-01-30T10:37:20;14.73;;;6.47;;
85223;SDS011;75619;51.316;4.824;2024-01-30T10:39:50;15.90;;;7.28;;
85223;SDS011;75619;51.316;4.824;2024-01-30T10:42:18;16.40;;;7.25;;
85223;SDS011;75619;51.316;4.824;2024-01-30T10:44:47;20.63;;;8.05;;
85223;SDS011;75619;51.316;4.824;2024-01-30T10:47:25;18.65;;;7.50;;
85223;SDS011;75619;51.316;4.824;2024-01-30T10:49:52;20.55;;;8.70;;
85223;SDS011;75619;51.316;4.824;2024-01-30T10:52:19;18.65;;;8.10;;
85223;SDS011;75619;51.316;4.824;2024-01-30T10:54:45;12.98;;;6.65;;
85223;SDS011;75619;51.316;4.824;2024-01-30T10:57:12;12.52;;;6.53;;
85223;SDS011;75619;51.316;4.824;2024-01-30T10:59:38;14.48;;;6.90;;
85223;SDS011;75619;51.316;4.824;2024-01-30T11:02:05;12.25;;;5.57;;
85223;SDS011;75619;51.316;4.824;2024-01-30T11:04:37;13.57;;;5.55;;
85223;SDS011;75619;51.316;4.824;2024-01-30T11:07:18;12.40;;;5.00;;
85223;SDS011;75619;51.316;4.824;2024-01-30T11:09:52;15.35;;;4.90;;
85223;SDS011;75619;51.316;4.824;2024-01-30T11:12:26;8.38;;;3.60;;
85223;SDS011;75619;51.316;4.824;2024-01-30T11:15:08;8.40;;;2.92;;
85223;SDS011;75619;51.316;4.824;2024-01-30T11:17:45;7.47;;;2.63;;
85223;SDS011;75619;51.316;4.824;2024-01-30T11:20:36;6.53;;;3.10;;
85223;SDS011;75619;51.316;4.824;2024-01-30T11:23:10;7.35;;;2.33;;
85223;SDS011;75619;51.316;4.824;2024-01-30T11:25:36;17.63;;;4.82;;
85223;SDS011;75619;51.316;4.824;2024-01-30T11:28:02;7.10;;;2.85;;
85223;SDS011;75619;51.316;4.824;2024-01-30T11:30:29;4.53;;;1.73;;
85223;SDS011;75619;51.316;4.824;2024-01-30T11:32:58;4.68;;;2.05;;
85223;SDS011;75619;51.316;4.824;2024-01-30T11:35:25;4.22;;;1.23;;
85223;SDS011;75619;51.316;4.824;2024-01-30T11:37:50;3.85;;;1.67;;
85223;SDS011;75619;51.316;4.824;2024-01-30T11:40:16;6.05;;;1.60;;
85223;SDS011;75619;51.316;4.824;2024-01-30T11:42:42;5.68;;;2.45;;
85223;SDS011;75619;51.316;4.824;2024-01-30T11:45:08;4.72;;;1.48;;
85223;SDS011;75619;51.316;4.824;2024-01-30T11:47:35;3.40;;;1.63;;
85223;SDS011;75619;51.316;4.824;2024-01-30T11:50:03;3.85;;;1.63;;
85223;SDS011;75619;51.316;4.824;2024-01-30T11:52:31;5.72;;;2.60;;
85223;SDS011;75619;51.316;4.824;2024-01-30T11:54:58;5.57;;;2.25;;
85223;SDS011;75619;51.316;4.824;2024-01-30T11:57:26;7.28;;;1.65;;
85223;SDS011;75619;51.316;4.824;2024-01-30T11:59:52;7.50;;;1.90;;
85223;SDS011;75619;51.316;4.824;2024-01-30T12:02:17;3.88;;;1.10;;
85223;SDS011;75619;51.316;4.824;2024-01-30T12:04:43;2.70;;;1.08;;
85223;SDS011;75619;51.316;4.824;2024-01-30T12:07:08;13.40;;;6.40;;
85223;SDS011;75619;51.316;4.824;2024-01-30T12:09:34;6.20;;;1.33;;
85223;SDS011;75619;51.316;4.824;2024-01-30T12:11:59;3.33;;;0.80;;
85223;SDS011;75619;51.316;4.824;2024-01-30T12:14:25;5.78;;;1.20;;
85223;SDS011;75619;51.316;4.824;2024-01-30T12:16:51;6.45;;;1.90;;
85223;SDS011;75619;51.316;4.824;2024-01-30T12:19:26;4.05;;;1.20;;
85223;SDS011;75619;51.316;4.824;2024-01-30T12:21:55;3.63;;;1.00;;
85223;SDS011;75619;51.316;4.824;2024-01-30T12:24:23;5.25;;;1.55;;
85223;SDS011;75619;51.316;4.824;2024-01-30T12:26:50;3.33;;;0.90;;
85223;SDS011;75619;51.316;4.824;2024-01-30T12:29:16;6.30;;;1.20;;
85223;SDS011;75619;51.316;4.824;2024-01-30T12:31:42;3.95;;;1.73;;
85223;SDS011;75619;51.316;4.824;2024-01-30T12:34:08;3.42;;;1.08;;
85223;SDS011;75619;51.316;4.824;2024-01-30T12:36:34;4.70;;;1.35;;
85223;SDS011;75619;51.316;4.824;2024-01-30T12:39:00;5.00;;;1.20;;
85223;SDS011;75619;51.316;4.824;2024-01-30T12:41:26;5.40;;;2.35;;
85223;SDS011;75619;51.316;4.824;2024-01-30T12:43:54;6.78;;;2.95;;
85223;SDS011;75619;51.316;4.824;2024-01-30T12:46:19;6.20;;;2.28;;
85223;SDS011;75619;51.316;4.824;2024-01-30T12:48:45;1.63;;;0.70;;
85223;SDS011;75619;51.316;4.824;2024-01-30T12:51:10;2.60;;;0.88;;
85223;SDS011;75619;51.316;4.824;2024-01-30T12:53:36;3.17;;;1.20;;
85223;SDS011;75619;51.316;4.824;2024-01-30T12:56:02;4.57;;;1.20;;
85223;SDS011;75619;51.316;4.824;2024-01-30T12:58:28;5.55;;;1.42;;
85223;SDS011;75619;51.316;4.824;2024-01-30T13:00:54;4.57;;;1.50;;
85223;SDS011;75619;51.316;4.824;2024-01-30T13:03:19;5.05;;;1.30;;
85223;SDS011;75619;51.316;4.824;2024-01-30T13:05:45;4.05;;;1.02;;
85223;SDS011;75619;51.316;4.824;2024-01-30T13:08:10;4.75;;;1.40;;
85223;SDS011;75619;51.316;4.824;2024-01-30T13:10:36;9.48;;;1.33;;
85223;SDS011;75619;51.316;4.824;2024-01-30T13:13:01;3.75;;;1.13;;
85223;SDS011;75619;51.316;4.824;2024-01-30T13:15:27;9.02;;;1.65;;
85223;SDS011;75619;51.316;4.824;2024-01-30T13:17:53;5.32;;;1.50;;
85223;SDS011;75619;51.316;4.824;2024-01-30T13:20:19;5.45;;;1.33;;
85223;SDS011;75619;51.316;4.824;2024-01-30T13:22:49;5.88;;;1.52;;
85223;SDS011;75619;51.316;4.824;2024-01-30T13:25:15;5.35;;;1.23;;
85223;SDS011;75619;51.316;4.824;2024-01-30T13:27:41;6.55;;;1.80;;
85223;SDS011;75619;51.316;4.824;2024-01-30T13:30:06;5.95;;;1.25;;
85223;SDS011;75619;51.316;4.824;2024-01-30T13:32:33;3.85;;;0.93;;
85223;SDS011;75619;51.316;4.824;2024-01-30T13:34:58;6.68;;;1.00;;
85223;SDS011;75619;51.316;4.824;2024-01-30T13:37:24;3.38;;;0.90;;
85223;SDS011;75619;51.316;4.824;2024-01-30T13:39:50;4.50;;;1.38;;
85223;SDS011;75619;51.316;4.824;2024-01-30T13:42:15;5.82;;;2.40;;
85223;SDS011;75619;51.316;4.824;2024-01-30T13:44:41;5.93;;;1.80;;
85223;SDS011;75619;51.316;4.824;2024-01-30T13:47:08;3.75;;;1.40;;
85223;SDS011;75619;51.316;4.824;2024-01-30T13:49:34;7.22;;;1.30;;
85223;SDS011;75619;51.316;4.824;2024-01-30T13:52:00;4.03;;;1.67;;
85223;SDS011;75619;51.316;4.824;2024-01-30T13:54:26;7.55;;;2.05;;
85223;SDS011;75619;51.316;4.824;2024-01-30T13:56:51;7.63;;;2.00;;
85223;SDS011;75619;51.316;4.824;2024-01-30T13:59:17;5.78;;;1.85;;
85223;SDS011;75619;51.316;4.824;2024-01-30T14:01:49;4.35;;;1.67;;
85223;SDS011;75619;51.316;4.824;2024-01-30T14:04:16;7.05;;;1.60;;
85223;SDS011;75619;51.316;4.824;2024-01-30T14:06:41;4.38;;;1.70;;
85223;SDS011;75619;51.316;4.824;2024-01-30T14:09:06;4.10;;;2.00;;
85223;SDS011;75619;51.316;4.824;2024-01-30T14:11:32;3.20;;;1.77;;
85223;SDS011;75619;51.316;4.824;2024-01-30T14:13:57;5.95;;;2.00;;
85223;SDS011;75619;51.316;4.824;2024-01-30T14:16:23;6.63;;;2.30;;
85223;SDS011;75619;51.316;4.824;2024-01-30T14:18:49;17.63;;;1.92;;
85223;SDS011;75619;51.316;4.824;2024-01-30T14:21:15;3.80;;;1.45;;
85223;SDS011;75619;51.316;4.824;2024-01-30T14:23:40;7.18;;;2.53;;
85223;SDS011;75619;51.316;4.824;2024-01-30T14:26:06;11.68;;;1.83;;
85223;SDS011;75619;51.316;4.824;2024-01-30T14:28:31;4.85;;;1.67;;
85223;SDS011;75619;51.316;4.824;2024-01-30T14:30:57;6.85;;;2.30;;
85223;SDS011;75619;51.316;4.824;2024-01-30T14:33:22;6.50;;;3.13;;
85223;SDS011;75619;51.316;4.824;2024-01-30T14:35:48;16.50;;;5.22;;